createdAt,value
2023-03-02T00:03:33.603Z,36.80
2023-03-02T00:08:38.418Z,36.50
2023-03-02T00:13:41.245Z,42.73
2023-03-02T00:18:44.081Z,30.67
2023-03-02T00:23:48.244Z,30.07
2023-03-02T00:28:51.021Z,33.13
2023-03-02T00:33:54.878Z,37.37
2023-03-02T00:38:59.071Z,38.27
2023-03-02T00:44:01.931Z,34.83
2023-03-02T00:49:04.774Z,32.90
2023-03-02T00:54:08.907Z,31.20
2023-03-02T00:59:26.115Z,33.13
2023-03-02T01:04:38.640Z,41.63
2023-03-02T01:09:44.799Z,36.40
2023-03-02T01:14:49.136Z,37.70
2023-03-02T01:19:52.495Z,38.60
2023-03-02T01:24:56.982Z,34.47
2023-03-02T01:29:59.776Z,27.23
2023-03-02T01:35:02.614Z,28.43
2023-03-02T01:40:09.158Z,29.07
2023-03-02T01:45:47.361Z,34.17
2023-03-02T01:50:54.776Z,34.97
2023-03-02T01:56:00.464Z,29.00
2023-03-02T02:01:04.120Z,26.57
2023-03-02T02:06:11.649Z,27.83
2023-03-02T02:11:16.072Z,31.17
2023-03-02T02:16:18.983Z,29.50
2023-03-02T02:21:23.533Z,28.60
2023-03-02T02:26:30.887Z,29.50
2023-03-02T02:31:37.358Z,22.63
2023-03-02T02:36:43.294Z,25.63
2023-03-02T02:41:54.054Z,24.13
2023-03-02T02:46:57.269Z,22.63
2023-03-02T02:52:00.548Z,21.10
2023-03-02T02:57:05.225Z,26.67
2023-03-02T03:02:14.868Z,18.00
2023-03-02T03:07:22.299Z,23.17
2023-03-02T03:12:28.123Z,22.80
2023-03-02T03:17:31.228Z,19.13
2023-03-02T03:22:38.213Z,23.13
2023-03-02T03:27:44.149Z,17.73
2023-03-02T03:32:47.960Z,22.60
2023-03-02T03:37:51.983Z,23.87
2023-03-02T03:42:57.359Z,21.83
2023-03-02T03:48:00.645Z,23.20
2023-03-02T03:53:04.026Z,18.03
2023-03-02T03:58:08.812Z,19.27
2023-03-02T04:03:11.983Z,26.37
2023-03-02T04:08:15.054Z,25.13
2023-03-02T04:13:19.484Z,20.00
2023-03-02T04:18:22.416Z,24.87
2023-03-02T04:23:25.253Z,29.27
2023-03-02T04:28:29.639Z,23.43
2023-03-02T04:33:32.776Z,27.47
2023-03-02T04:38:35.674Z,26.40
2023-03-02T04:43:40.048Z,30.07
2023-03-02T04:48:42.937Z,21.30
2023-03-02T04:53:45.692Z,20.50
2023-03-02T04:58:50.101Z,28.03
2023-03-02T05:03:53.152Z,26.57
2023-03-02T05:08:59.794Z,28.63
2023-03-02T05:14:05.625Z,29.07
2023-03-02T05:19:10.626Z,23.37
2023-03-02T05:24:14.184Z,26.00
2023-03-02T05:29:18.455Z,33.67
2023-03-02T05:34:21.244Z,27.30
2023-03-02T05:39:24.124Z,27.33
2023-03-02T05:44:28.327Z,27.73
2023-03-02T05:49:31.192Z,24.67
2023-03-02T05:54:33.994Z,29.93
2023-03-02T05:59:38.270Z,29.70
2023-03-02T06:04:43.152Z,28.50
2023-03-02T06:09:45.935Z,25.37
2023-03-02T06:14:50.244Z,23.80
2023-03-02T06:19:53.134Z,27.50
2023-03-02T06:24:56.094Z,26.30
2023-03-02T06:30:00.287Z,26.83
2023-03-02T06:35:03.779Z,26.67
2023-03-02T06:40:10.298Z,23.50
2023-03-02T06:45:14.563Z,23.40
2023-03-02T06:50:17.566Z,22.17
2023-03-02T06:55:20.540Z,22.90
2023-03-02T07:00:27.959Z,25.17
2023-03-02T07:05:32.245Z,19.97
2023-03-02T07:10:35.096Z,25.30
2023-03-02T07:15:41.660Z,22.63
2023-03-02T07:20:44.541Z,26.37
2023-03-02T07:25:47.282Z,23.77
2023-03-02T07:30:51.561Z,28.70
2023-03-02T07:35:54.407Z,25.10
2023-03-02T07:40:57.268Z,24.50
2023-03-02T07:46:01.448Z,30.03
2023-03-02T07:51:06.415Z,26.53
2023-03-02T07:56:10.191Z,22.20
2023-03-02T08:01:14.422Z,30.73
2023-03-02T08:06:17.252Z,32.23
2023-03-02T08:11:20.262Z,27.77
2023-03-02T08:16:26.392Z,27.87
2023-03-02T08:21:29.698Z,27.87
2023-03-02T08:26:32.772Z,27.13
2023-03-02T08:31:37.187Z,26.50
2023-03-02T08:36:40.126Z,27.87
2023-03-02T08:41:42.977Z,22.63
2023-03-02T08:46:47.113Z,31.27
2023-03-02T08:51:53.584Z,29.33
2023-03-02T08:57:21.429Z,29.10
2023-03-02T09:02:25.774Z,23.47
2023-03-02T09:07:30.672Z,25.80
2023-03-02T09:12:33.494Z,26.97
2023-03-02T09:17:37.692Z,25.97
2023-03-02T09:22:40.426Z,32.13
2023-03-02T09:27:43.255Z,27.57
2023-03-02T09:32:49.087Z,26.40
2023-03-02T09:37:52.144Z,24.83
2023-03-02T09:43:02.667Z,28.20
2023-03-02T09:48:15.438Z,26.43
2023-03-02T09:53:36.451Z,28.00
2023-03-02T09:58:40.791Z,21.00
2023-03-02T10:03:50.966Z,27.80
2023-03-02T10:08:54.042Z,21.00
2023-03-02T10:14:00.463Z,30.93
2023-03-02T10:19:09.709Z,26.97
2023-03-02T10:24:18.885Z,21.97
2023-03-02T10:29:40.954Z,26.83
2023-03-02T10:34:45.214Z,27.30
2023-03-02T10:39:48.307Z,23.03
2023-03-02T10:44:53.606Z,21.20
2023-03-02T10:49:58.897Z,21.10
2023-03-02T10:55:06.743Z,21.57
2023-03-02T11:00:17.602Z,24.73
2023-03-02T11:05:27.450Z,26.23
2023-03-02T11:10:32.553Z,19.17
2023-03-02T11:15:37.672Z,22.83
2023-03-02T11:20:45.148Z,25.67
2023-03-02T11:25:53.513Z,19.07
2023-03-02T11:30:58.364Z,22.10
2023-03-02T11:36:06.657Z,27.67
2023-03-02T11:41:18.906Z,20.27
2023-03-02T11:46:26.508Z,23.17
2023-03-02T11:51:35.292Z,21.77
2023-03-02T11:56:40.053Z,20.07
2023-03-02T12:01:43.614Z,22.87
2023-03-02T12:06:48.087Z,23.13
2023-03-02T12:11:57.453Z,23.33
2023-03-02T12:17:22.248Z,15.17
2023-03-02T12:22:31.111Z,19.93
2023-03-02T12:27:39.382Z,15.37
2023-03-02T12:32:42.972Z,16.47
2023-03-02T12:37:49.255Z,23.50
2023-03-02T12:43:06.759Z,21.57
2023-03-02T12:48:23.977Z,27.73
2023-03-02T12:53:28.673Z,23.73
2023-03-02T12:58:32.527Z,20.83
2023-03-02T13:03:35.483Z,16.27
2023-03-02T13:08:39.850Z,16.53
2023-03-02T13:13:44.937Z,21.60
2023-03-02T13:18:49.932Z,22.67
2023-03-02T13:23:54.213Z,22.07
2023-03-02T13:29:05.163Z,19.33
2023-03-02T13:34:22.144Z,28.57
2023-03-02T13:39:28.729Z,18.63
2023-03-02T13:44:33.682Z,25.60
2023-03-02T13:49:37.389Z,20.53
2023-03-02T13:54:43.555Z,19.17
2023-03-02T13:59:46.539Z,19.23
2023-03-02T14:04:49.498Z,23.43
2023-03-02T14:09:55.917Z,23.40
2023-03-02T14:15:01.566Z,21.50
2023-03-02T14:20:04.932Z,21.40
2023-03-02T14:25:09.968Z,17.33
2023-03-02T14:30:18.767Z,21.20
2023-03-02T14:35:22.095Z,16.90
2023-03-02T14:40:28.862Z,18.20
2023-03-02T14:45:32.071Z,14.50
2023-03-02T14:50:39.020Z,17.63
2023-03-02T14:55:43.621Z,21.10
2023-03-02T15:00:47.375Z,18.17
2023-03-02T15:06:00.822Z,17.07
2023-03-02T15:11:06.389Z,17.90
2023-03-02T15:16:10.998Z,16.27
2023-03-02T15:21:17.179Z,17.67
2023-03-02T15:26:21.400Z,21.80
2023-03-02T15:31:24.233Z,16.23
2023-03-02T15:36:27.123Z,16.47
2023-03-02T15:41:31.475Z,17.70
2023-03-02T15:46:34.550Z,16.10
2023-03-02T15:51:37.525Z,13.23
2023-03-02T15:56:44.292Z,18.23
2023-03-02T16:01:47.531Z,15.87
2023-03-02T16:06:50.518Z,14.37
2023-03-02T16:11:55.978Z,16.17
2023-03-02T16:16:58.906Z,17.10
2023-03-02T16:22:01.905Z,13.33
2023-03-02T16:27:06.357Z,14.03
2023-03-02T16:32:09.406Z,14.17
2023-03-02T16:37:12.493Z,12.13
2023-03-02T16:42:18.476Z,10.73
2023-03-02T16:47:21.345Z,13.73
2023-03-02T16:52:24.304Z,15.77
2023-03-02T16:57:28.731Z,8.70
2023-03-02T17:02:31.806Z,8.77
2023-03-02T17:07:35.620Z,11.37
2023-03-02T17:12:40.180Z,7.50
2023-03-02T17:17:43.098Z,9.03
2023-03-02T17:22:46.182Z,9.63
2023-03-02T17:27:50.777Z,8.60
2023-03-02T17:32:53.691Z,9.47
2023-03-02T17:37:59.022Z,5.43
2023-03-02T17:43:03.244Z,7.80
2023-03-02T17:48:06.760Z,10.37
2023-03-02T17:53:09.697Z,9.60
2023-03-02T17:58:14.186Z,8.43
2023-03-02T18:03:17.405Z,5.60
2023-03-02T18:08:20.336Z,8.60
2023-03-02T18:13:24.640Z,7.40
2023-03-02T18:18:27.723Z,7.23
2023-03-02T18:23:31.256Z,9.00
2023-03-02T18:28:35.627Z,8.47
2023-03-02T18:33:38.614Z,6.33
2023-03-02T18:38:41.747Z,8.33
2023-03-02T18:43:46.075Z,13.03
2023-03-02T18:48:49.505Z,10.37
2023-03-02T18:53:53.201Z,9.10
2023-03-02T18:58:57.427Z,9.57
2023-03-02T19:04:02.081Z,10.33
2023-03-02T19:09:05.141Z,11.50
2023-03-02T19:14:09.637Z,9.73
2023-03-02T19:19:12.641Z,7.23
2023-03-02T19:24:15.513Z,11.57
2023-03-02T19:29:22.063Z,8.03
2023-03-02T19:34:25.153Z,9.97
2023-03-02T19:39:28.017Z,9.13
2023-03-02T19:44:32.741Z,10.10
2023-03-02T19:49:37.640Z,10.73
2023-03-02T19:54:40.515Z,13.10
2023-03-02T19:59:44.816Z,11.90
2023-03-02T20:04:48.877Z,13.60
2023-03-02T20:09:51.697Z,10.93
2023-03-02T20:14:56.836Z,7.97
2023-03-02T20:20:01.330Z,4.03
2023-03-02T20:25:05.016Z,7.00
2023-03-02T20:30:14.175Z,12.40
2023-03-02T20:35:17.088Z,6.63
2023-03-02T20:40:20.063Z,8.93
2023-03-02T20:45:24.415Z,10.00
2023-03-02T20:50:30.241Z,11.17
2023-03-02T20:55:33.532Z,12.40
2023-03-02T21:00:38.609Z,16.23
2023-03-02T21:05:42.752Z,11.47
2023-03-02T21:10:45.579Z,8.83
2023-03-02T21:15:50.097Z,10.63
2023-03-02T21:20:53.058Z,13.50
2023-03-02T21:25:56.599Z,10.00
2023-03-02T21:31:00.951Z,16.87
2023-03-02T21:36:03.961Z,10.20
2023-03-02T21:41:06.704Z,14.50
2023-03-02T21:46:12.293Z,8.50
2023-03-02T21:51:15.842Z,10.30
2023-03-02T21:56:21.723Z,14.00
2023-03-02T22:01:26.768Z,11.60
2023-03-02T22:06:31.573Z,20.80
2023-03-02T22:11:36.399Z,10.53
2023-03-02T22:16:42.060Z,8.20
2023-03-02T22:21:46.913Z,9.70
2023-03-02T22:26:55.012Z,8.37
2023-03-02T22:32:15.574Z,7.93
2023-03-02T22:37:20.258Z,9.97
2023-03-02T22:42:24.969Z,7.93
2023-03-02T22:47:29.325Z,12.93
2023-03-02T22:52:37.290Z,9.03
2023-03-02T22:57:42.434Z,9.53
2023-03-02T23:02:47.250Z,8.10
2023-03-02T23:07:50.085Z,6.97
2023-03-02T23:12:52.964Z,13.90
2023-03-02T23:17:58.641Z,9.97
2023-03-02T23:23:01.475Z,9.10
2023-03-02T23:28:04.305Z,6.40
2023-03-02T23:33:08.692Z,7.70
2023-03-02T23:38:11.548Z,7.10
2023-03-02T23:43:14.409Z,6.73
2023-03-02T23:48:18.686Z,6.47
2023-03-02T23:53:21.541Z,7.50
2023-03-02T23:58:24.860Z,5.97
